Time;durP1;ratioP1;P1;durP2;ratioP2;P2;SDS_P1;SDS_P2;PMS_P1;PMS_P2;Temp;Humidity;BMP_temperature;BMP_pressure;BME280_temperature;BME280_humidity;BME280_pressure;Samples;Min_cycle;Max_cycle;Signal;HPM_P1;HPM_P2
2023/09/26 00:01:32;;;;;;;10.18;9.00;;;;;;;;;;5074650;28;20043;-62
2023/09/26 00:03:58;;;;;;;14.75;9.57;;;;;;;;;;5074355;28;20121;-62
2023/09/26 00:06:24;;;;;;;12.43;9.63;;;;;;;;;;5074198;28;20604;-62
2023/09/26 00:08:52;;;;;;;12.93;9.50;;;;;;;;;;5056442;28;20122;-62
2023/09/26 00:11:17;;;;;;;11.57;9.23;;;;;;;;;;5074849;28;20029;-62
2023/09/26 00:13:43;;;;;;;13.70;9.00;;;;;;;;;;5074087;28;20037;-62
2023/09/26 00:16:09;;;;;;;12.18;9.23;;;;;;;;;;5074342;28;20112;-62
2023/09/26 00:18:35;;;;;;;11.48;9.30;;;;;;;;;;5056133;28;20021;-62
2023/09/26 00:21:00;;;;;;;13.07;9.57;;;;;;;;;;5073698;28;20032;-62
2023/09/26 00:23:26;;;;;;;15.75;9.73;;;;;;;;;;5073299;28;20025;-62
2023/09/26 00:25:51;;;;;;;12.85;10.23;;;;;;;;;;5069208;28;20037;-62
2023/09/26 00:28:16;;;;;;;12.10;9.57;;;;;;;;;;5056421;28;20055;-62
2023/09/26 00:30:42;;;;;;;15.00;10.50;;;;;;;;;;5073946;28;20416;-62
2023/09/26 00:33:08;;;;;;;16.60;10.98;;;;;;;;;;5055790;28;20066;-62
2023/09/26 00:35:35;;;;;;;14.93;10.75;;;;;;;;;;5056414;28;20019;-62
2023/09/26 00:38:00;;;;;;;16.73;10.25;;;;;;;;;;5055733;28;20036;-62
2023/09/26 00:40:28;;;;;;;14.82;10.23;;;;;;;;;;5055840;28;20036;-62
2023/09/26 00:42:53;;;;;;;13.27;10.32;;;;;;;;;;5055708;28;20016;-62
2023/09/26 00:45:19;;;;;;;14.18;9.23;;;;;;;;;;5073586;28;20487;-62
2023/09/26 00:47:45;;;;;;;16.42;10.38;;;;;;;;;;5056173;28;20098;-62
2023/09/26 00:50:13;;;;;;;11.23;8.57;;;;;;;;;;5055916;28;20062;-63
2023/09/26 00:52:43;;;;;;;12.98;9.48;;;;;;;;;;5055562;28;20027;-63
2023/09/26 00:55:09;;;;;;;14.45;8.80;;;;;;;;;;5056045;28;20032;-63
2023/09/26 00:57:35;;;;;;;15.25;9.77;;;;;;;;;;5074091;28;20035;-63
2023/09/26 01:00:04;;;;;;;11.82;9.32;;;;;;;;;;5072920;28;20027;-63
2023/09/26 01:02:30;;;;;;;11.65;8.85;;;;;;;;;;5073824;28;20484;-63
2023/09/26 01:04:55;;;;;;;12.43;9.25;;;;;;;;;;5074245;28;20033;-62
2023/09/26 01:07:22;;;;;;;10.68;8.10;;;;;;;;;;5055520;28;20478;-62
2023/09/26 01:09:47;;;;;;;11.75;8.43;;;;;;;;;;5055502;28;20040;-62
2023/09/26 01:12:13;;;;;;;13.07;9.52;;;;;;;;;;5073900;28;20020;-62
2023/09/26 01:14:39;;;;;;;10.80;7.47;;;;;;;;;;5074057;28;20031;-62
2023/09/26 01:17:04;;;;;;;11.25;7.60;;;;;;;;;;5073654;28;20473;-62
2023/09/26 01:19:29;;;;;;;12.50;7.22;;;;;;;;;;5068574;28;20040;-62
2023/09/26 01:21:55;;;;;;;8.68;7.28;;;;;;;;;;5055685;28;20033;-62
2023/09/26 01:24:20;;;;;;;11.73;7.55;;;;;;;;;;5074019;28;20147;-62
2023/09/26 01:26:46;;;;;;;8.52;6.32;;;;;;;;;;5055574;28;20023;-62
2023/09/26 01:29:12;;;;;;;6.50;4.90;;;;;;;;;;5055312;28;20056;-62
2023/09/26 01:31:39;;;;;;;6.03;4.32;;;;;;;;;;5073983;28;20021;-62
2023/09/26 01:34:05;;;;;;;5.88;4.45;;;;;;;;;;5075936;28;20082;-62
2023/09/26 01:36:31;;;;;;;4.78;4.38;;;;;;;;;;5059287;28;20036;-62
2023/09/26 01:38:56;;;;;;;5.82;5.18;;;;;;;;;;5059519;28;20134;-58
2023/09/26 01:41:22;;;;;;;5.43;4.07;;;;;;;;;;5077402;28;20443;-59
2023/09/26 01:43:47;;;;;;;6.47;5.38;;;;;;;;;;5077422;28;20021;-58
2023/09/26 01:46:13;;;;;;;10.23;6.47;;;;;;;;;;5077294;28;20051;-58
2023/09/26 01:48:38;;;;;;;4.63;4.25;;;;;;;;;;5077242;28;20028;-58
2023/09/26 01:51:06;;;;;;;5.55;4.57;;;;;;;;;;5076821;28;20044;-57
2023/09/26 01:53:31;;;;;;;7.53;5.45;;;;;;;;;;5077224;28;20474;-58
2023/09/26 01:56:00;;;;;;;8.57;5.45;;;;;;;;;;5059383;28;20020;-58
2023/09/26 01:58:26;;;;;;;6.97;5.32;;;;;;;;;;5076616;28;20462;-58
2023/09/26 02:00:51;;;;;;;7.72;5.43;;;;;;;;;;5075333;28;20035;-57
2023/09/26 02:03:17;;;;;;;7.82;7.05;;;;;;;;;;5076845;28;20059;-57
2023/09/26 02:05:42;;;;;;;10.20;5.82;;;;;;;;;;5076332;28;20038;-57
2023/09/26 02:08:08;;;;;;;9.25;6.32;;;;;;;;;;5058952;28;20033;-57
2023/09/26 02:10:33;;;;;;;8.50;6.60;;;;;;;;;;5077182;28;20397;-58
2023/09/26 02:12:59;;;;;;;7.07;5.72;;;;;;;;;;5076717;28;20107;-57
2023/09/26 02:15:25;;;;;;;8.38;5.40;;;;;;;;;;5053211;28;20032;-58
2023/09/26 02:17:51;;;;;;;9.80;6.25;;;;;;;;;;5075422;28;20060;-58
2023/09/26 02:20:17;;;;;;;8.70;5.80;;;;;;;;;;5076440;28;20032;-57
2023/09/26 02:22:44;;;;;;;8.52;6.93;;;;;;;;;;5058533;28;20027;-57
2023/09/26 02:25:10;;;;;;;8.85;6.88;;;;;;;;;;5058658;28;20054;-57
2023/09/26 02:27:36;;;;;;;7.90;6.35;;;;;;;;;;5076862;28;20075;-57
2023/09/26 02:30:04;;;;;;;13.18;5.72;;;;;;;;;;5076784;28;20422;-58
2023/09/26 02:32:31;;;;;;;8.90;6.38;;;;;;;;;;5076571;28;20137;-58
2023/09/26 02:34:56;;;;;;;8.40;6.25;;;;;;;;;;5058049;28;20029;-58
2023/09/26 02:37:22;;;;;;;10.52;7.70;;;;;;;;;;5058051;28;20058;-58
2023/09/26 02:39:48;;;;;;;8.20;7.13;;;;;;;;;;5058629;28;20462;-57
2023/09/26 02:42:13;;;;;;;9.43;7.13;;;;;;;;;;5058222;28;20074;-59
2023/09/26 02:44:39;;;;;;;10.32;7.63;;;;;;;;;;5074335;28;20526;-59
2023/09/26 02:47:04;;;;;;;9.55;7.38;;;;;;;;;;5058001;28;20111;-60
2023/09/26 02:49:30;;;;;;;10.65;8.15;;;;;;;;;;5076209;28;20033;-59
2023/09/26 02:51:56;;;;;;;13.45;7.75;;;;;;;;;;5075678;28;20358;-59
2023/09/26 02:54:21;;;;;;;10.27;6.85;;;;;;;;;;5058429;28;20036;-59
2023/09/26 02:56:46;;;;;;;9.10;7.13;;;;;;;;;;5076208;28;20437;-59
2023/09/26 02:59:12;;;;;;;10.07;7.60;;;;;;;;;;5058091;28;20078;-58
2023/09/26 03:01:37;;;;;;;10.57;7.93;;;;;;;;;;5076003;28;20362;-59
2023/09/26 03:04:03;;;;;;;9.18;7.43;;;;;;;;;;5041088;28;20028;-57
2023/09/26 03:06:28;;;;;;;9.95;7.78;;;;;;;;;;5058298;28;20016;-57
2023/09/26 03:08:53;;;;;;;11.13;7.93;;;;;;;;;;5075775;28;20044;-57
2023/09/26 03:11:19;;;;;;;10.70;7.85;;;;;;;;;;5069138;28;20490;-57
2023/09/26 03:13:45;;;;;;;10.73;7.35;;;;;;;;;;5075366;28;20482;-57
2023/09/26 03:16:13;;;;;;;8.77;7.07;;;;;;;;;;5057316;28;20485;-57
2023/09/26 03:18:39;;;;;;;10.57;7.82;;;;;;;;;;5057172;28;20028;-57
2023/09/26 03:21:07;;;;;;;10.18;7.90;;;;;;;;;;5057893;28;20021;-58
2023/09/26 03:23:33;;;;;;;9.95;7.45;;;;;;;;;;5075324;28;20125;-57
2023/09/26 03:25:59;;;;;;;10.50;7.50;;;;;;;;;;5073784;28;20479;-58
2023/09/26 03:28:24;;;;;;;11.15;7.55;;;;;;;;;;5074939;28;20478;-58
2023/09/26 03:30:50;;;;;;;9.30;7.40;;;;;;;;;;5057375;28;20040;-58
2023/09/26 03:33:16;;;;;;;8.20;7.10;;;;;;;;;;5057141;28;20107;-58
2023/09/26 03:35:41;;;;;;;11.13;7.70;;;;;;;;;;5075225;28;20454;-59
2023/09/26 03:38:07;;;;;;;10.90;7.47;;;;;;;;;;5056714;28;20024;-58
2023/09/26 03:40:32;;;;;;;12.35;7.60;;;;;;;;;;5075060;28;20047;-58
2023/09/26 03:42:57;;;;;;;12.57;7.95;;;;;;;;;;5074692;28;20131;-58
2023/09/26 03:45:23;;;;;;;11.43;7.30;;;;;;;;;;5056737;28;20029;-59
2023/09/26 03:47:49;;;;;;;8.18;6.50;;;;;;;;;;5074582;28;20023;-59
2023/09/26 03:50:15;;;;;;;11.13;7.93;;;;;;;;;;5074849;28;20016;-57
2023/09/26 03:52:40;;;;;;;10.90;7.28;;;;;;;;;;5074478;28;20462;-58
2023/09/26 03:55:06;;;;;;;8.73;6.38;;;;;;;;;;5074385;28;20027;-58
2023/09/26 03:57:33;;;;;;;8.90;6.95;;;;;;;;;;5074864;28;20116;-58
2023/09/26 03:59:59;;;;;;;11.55;7.88;;;;;;;;;;5074272;28;20025;-58
2023/09/26 04:02:24;;;;;;;12.02;8.10;;;;;;;;;;5074721;28;20024;-59
2023/09/26 04:04:50;;;;;;;9.15;7.50;;;;;;;;;;5074492;28;20040;-57
2023/09/26 04:07:15;;;;;;;11.63;8.07;;;;;;;;;;5074863;28;20060;-57
2023/09/26 04:09:42;;;;;;;9.77;7.38;;;;;;;;;;5074177;28;20074;-57
2023/09/26 04:12:07;;;;;;;10.98;8.43;;;;;;;;;;5074701;28;20472;-58
2023/09/26 04:14:33;;;;;;;11.68;8.13;;;;;;;;;;5054004;28;20052;-58
2023/09/26 04:16:58;;;;;;;12.13;8.27;;;;;;;;;;5073940;28;20098;-58
2023/09/26 04:19:24;;;;;;;11.88;8.45;;;;;;;;;;5074144;28;20332;-58
2023/09/26 04:21:52;;;;;;;9.60;7.93;;;;;;;;;;5074476;28;20055;-58
2023/09/26 04:24:18;;;;;;;12.30;8.75;;;;;;;;;;5074317;28;20056;-57
2023/09/26 04:26:44;;;;;;;13.90;9.07;;;;;;;;;;5074184;28;20070;-57
2023/09/26 04:29:10;;;;;;;10.80;8.20;;;;;;;;;;5039694;28;20032;-57
2023/09/26 04:31:35;;;;;;;11.90;9.07;;;;;;;;;;5055205;28;20039;-57
2023/09/26 04:34:01;;;;;;;11.85;8.75;;;;;;;;;;5073130;28;20063;-57
2023/09/26 04:36:28;;;;;;;10.80;8.27;;;;;;;;;;5055330;28;20071;-59
2023/09/26 04:38:53;;;;;;;11.48;7.82;;;;;;;;;;5072921;28;20028;-60
2023/09/26 04:41:19;;;;;;;12.68;7.35;;;;;;;;;;5072949;28;20028;-59
2023/09/26 04:43:44;;;;;;;12.90;8.35;;;;;;;;;;5072233;28;20020;-58
2023/09/26 04:46:10;;;;;;;10.25;7.20;;;;;;;;;;5072631;28;20477;-60
2023/09/26 04:48:36;;;;;;;8.23;7.30;;;;;;;;;;5072687;28;20033;-58
2023/09/26 04:51:04;;;;;;;10.27;7.30;;;;;;;;;;5073198;28;20059;-58
2023/09/26 04:53:30;;;;;;;7.97;7.10;;;;;;;;;;5055009;28;20025;-58
2023/09/26 04:55:56;;;;;;;9.52;6.35;;;;;;;;;;5073120;28;20016;-58
2023/09/26 04:58:21;;;;;;;9.60;7.20;;;;;;;;;;5071301;28;20374;-58
2023/09/26 05:00:47;;;;;;;8.90;6.93;;;;;;;;;;5073122;28;20029;-58
2023/09/26 05:03:12;;;;;;;10.52;8.00;;;;;;;;;;5072566;28;20071;-58
2023/09/26 05:05:38;;;;;;;10.05;7.45;;;;;;;;;;5072933;28;20048;-59
2023/09/26 05:08:04;;;;;;;11.57;7.88;;;;;;;;;;5072819;28;20546;-59
2023/09/26 05:10:30;;;;;;;10.93;8.00;;;;;;;;;;5054055;28;20033;-58
2023/09/26 05:12:55;;;;;;;13.40;7.57;;;;;;;;;;5058711;28;20035;-59
2023/09/26 05:15:20;;;;;;;8.98;7.03;;;;;;;;;;5077366;28;20044;-57
2023/09/26 05:17:47;;;;;;;11.32;8.20;;;;;;;;;;5077113;28;20456;-57
2023/09/26 05:20:13;;;;;;;12.50;8.23;;;;;;;;;;5077564;28;20034;-57
2023/09/26 05:22:42;;;;;;;11.32;8.10;;;;;;;;;;5077726;28;20033;-57
2023/09/26 05:25:08;;;;;;;11.98;7.82;;;;;;;;;;5077608;28;20505;-60
2023/09/26 05:27:33;;;;;;;12.50;7.80;;;;;;;;;;5077611;28;20024;-57
2023/09/26 05:29:59;;;;;;;8.82;7.10;;;;;;;;;;5077592;28;20612;-57
2023/09/26 05:32:24;;;;;;;11.80;7.95;;;;;;;;;;5077522;28;20025;-57
2023/09/26 05:34:50;;;;;;;10.20;7.90;;;;;;;;;;5077732;28;20470;-57
2023/09/26 05:37:15;;;;;;;13.00;8.52;;;;;;;;;;5077114;28;20111;-57
2023/09/26 05:39:40;;;;;;;9.70;7.85;;;;;;;;;;5076104;28;20182;-57
2023/09/26 05:42:08;;;;;;;12.40;9.20;;;;;;;;;;5077305;28;20028;-58
2023/09/26 05:44:34;;;;;;;12.13;9.05;;;;;;;;;;5077528;28;20124;-57
2023/09/26 05:46:59;;;;;;;12.90;8.68;;;;;;;;;;5077236;28;20052;-58
2023/09/26 05:49:24;;;;;;;11.32;7.78;;;;;;;;;;5077465;28;20469;-58
2023/09/26 05:51:50;;;;;;;10.98;8.38;;;;;;;;;;5076873;28;20028;-58
2023/09/26 05:54:15;;;;;;;12.10;7.93;;;;;;;;;;5076795;28;20025;-57
2023/09/26 05:56:40;;;;;;;9.07;6.90;;;;;;;;;;5076793;28;20513;-58
2023/09/26 05:59:06;;;;;;;10.93;8.10;;;;;;;;;;5076330;28;20387;-57
2023/09/26 06:01:32;;;;;;;11.60;7.00;;;;;;;;;;5076686;28;20101;-57
2023/09/26 06:03:57;;;;;;;11.35;7.53;;;;;;;;;;5069892;28;20029;-58
2023/09/26 06:06:23;;;;;;;7.95;6.45;;;;;;;;;;4993841;28;20027;-57
2023/09/26 06:08:51;;;;;;;13.18;8.13;;;;;;;;;;4993225;28;20469;-57
2023/09/26 06:11:16;;;;;;;9.00;7.15;;;;;;;;;;4994255;28;20136;-57
2023/09/26 06:13:44;;;;;;;9.43;6.88;;;;;;;;;;4994268;28;20530;-61
2023/09/26 06:16:09;;;;;;;9.52;6.97;;;;;;;;;;5061919;28;20101;-62
2023/09/26 06:18:35;;;;;;;9.65;6.97;;;;;;;;;;4993870;28;20113;-62
2023/09/26 06:21:04;;;;;;;7.20;5.97;;;;;;;;;;4992819;28;20077;-62
2023/09/26 06:23:31;;;;;;;9.18;7.13;;;;;;;;;;4993737;28;20019;-62
2023/09/26 06:25:57;;;;;;;9.27;6.57;;;;;;;;;;4994131;28;20464;-62
2023/09/26 06:28:23;;;;;;;8.90;7.82;;;;;;;;;;4993723;28;20033;-62
2023/09/26 06:30:48;;;;;;;9.63;6.30;;;;;;;;;;4994291;28;20399;-62
2023/09/26 06:33:13;;;;;;;10.38;7.13;;;;;;;;;;5061064;28;20026;-62
2023/09/26 06:35:39;;;;;;;6.35;5.72;;;;;;;;;;4993828;28;20041;-61
2023/09/26 06:38:04;;;;;;;10.10;7.05;;;;;;;;;;4993631;28;20498;-61
2023/09/26 06:40:30;;;;;;;9.13;6.75;;;;;;;;;;4993777;28;20468;-61
2023/09/26 06:43:00;;;;;;;9.57;5.93;;;;;;;;;;4993724;28;20025;-61
2023/09/26 06:45:25;;;;;;;7.13;5.68;;;;;;;;;;4993623;28;20030;-61
2023/09/26 06:47:51;;;;;;;8.40;6.40;;;;;;;;;;4993181;28;20022;-61
2023/09/26 06:50:16;;;;;;;9.63;6.68;;;;;;;;;;4993281;28;20429;-61
2023/09/26 06:52:42;;;;;;;7.95;6.15;;;;;;;;;;4993369;28;20138;-61
2023/09/26 06:55:10;;;;;;;8.18;6.30;;;;;;;;;;4993223;28;20068;-61
2023/09/26 06:57:36;;;;;;;10.20;7.43;;;;;;;;;;5060966;28;20464;-61
2023/09/26 07:00:05;;;;;;;11.52;7.00;;;;;;;;;;4993441;28;20034;-61
2023/09/26 07:02:31;;;;;;;10.55;7.13;;;;;;;;;;5043968;28;20034;-61
2023/09/26 07:04:56;;;;;;;9.35;5.43;;;;;;;;;;5030295;28;20093;-61
2023/09/26 07:07:23;;;;;;;9.45;7.32;;;;;;;;;;5056411;28;20090;-61
2023/09/26 07:09:48;;;;;;;10.73;5.65;;;;;;;;;;5073848;28;20035;-61
2023/09/26 07:12:14;;;;;;;8.93;7.28;;;;;;;;;;5073860;28;20017;-61
2023/09/26 07:14:39;;;;;;;8.90;5.63;;;;;;;;;;5073985;28;20028;-61
2023/09/26 07:17:05;;;;;;;10.10;6.93;;;;;;;;;;5073870;28;20020;-61
2023/09/26 07:19:31;;;;;;;7.30;6.55;;;;;;;;;;5073793;28;20497;-61
2023/09/26 07:21:57;;;;;;;8.07;5.43;;;;;;;;;;5075274;28;20475;-61
2023/09/26 07:24:22;;;;;;;7.25;4.65;;;;;;;;;;5075101;28;20055;-61
2023/09/26 07:26:47;;;;;;;5.00;4.53;;;;;;;;;;5075298;28;20051;-61
2023/09/26 07:29:13;;;;;;;7.45;4.53;;;;;;;;;;5074963;28;20548;-61
2023/09/26 07:31:39;;;;;;;9.52;5.75;;;;;;;;;;5075040;28;20055;-61
2023/09/26 07:34:04;;;;;;;5.50;4.95;;;;;;;;;;5074910;28;20474;-61
2023/09/26 07:36:32;;;;;;;5.95;5.25;;;;;;;;;;5075143;28;20116;-61
2023/09/26 07:38:57;;;;;;;6.63;5.70;;;;;;;;;;5075018;28;20421;-61
2023/09/26 07:41:23;;;;;;;10.02;6.18;;;;;;;;;;5074736;28;20028;-61
2023/09/26 07:43:49;;;;;;;5.90;5.32;;;;;;;;;;5075245;28;20470;-61
2023/09/26 07:46:14;;;;;;;6.35;4.82;;;;;;;;;;5056834;28;20020;-61
2023/09/26 07:48:40;;;;;;;6.30;5.70;;;;;;;;;;5074911;28;20036;-61
2023/09/26 07:51:06;;;;;;;5.10;4.72;;;;;;;;;;5074830;28;20028;-61
2023/09/26 07:53:31;;;;;;;7.50;4.03;;;;;;;;;;5056627;28;20032;-61
2023/09/26 07:55:57;;;;;;;7.53;5.80;;;;;;;;;;5074754;28;20090;-61
2023/09/26 07:58:23;;;;;;;6.38;4.90;;;;;;;;;;5074335;28;20074;-61
2023/09/26 08:00:49;;;;;;;5.40;4.65;;;;;;;;;;5074695;28;20028;-61
2023/09/26 08:03:15;;;;;;;6.20;5.45;;;;;;;;;;5074341;28;20391;-61
2023/09/26 08:05:41;;;;;;;8.02;5.57;;;;;;;;;;5074262;28;20110;-61
2023/09/26 08:08:07;;;;;;;78.43;16.30;;;;;;;;;;5074272;28;20479;-61
2023/09/26 08:10:41;;;;;;;49.25;11.90;;;;;;;;;;5074452;28;20028;-56
2023/09/26 08:13:06;;;;;;;47.03;12.00;;;;;;;;;;5074118;28;20058;-56
2023/09/26 08:15:32;;;;;;;78.65;18.25;;;;;;;;;;5074635;28;20032;-56
2023/09/26 08:17:58;;;;;;;33.42;9.43;;;;;;;;;;5074009;28;20035;-56
2023/09/26 08:20:26;;;;;;;5.32;4.32;;;;;;;;;;5074319;28;20032;-56
2023/09/26 08:22:51;;;;;;;4.47;3.80;;;;;;;;;;5074542;28;20024;-56
2023/09/26 08:25:17;;;;;;;8.27;4.80;;;;;;;;;;5074019;28;20381;-56
2023/09/26 08:27:44;;;;;;;7.65;5.13;;;;;;;;;;5073964;28;20538;-56
2023/09/26 08:30:12;;;;;;;6.15;4.97;;;;;;;;;;5074493;28;20015;-56
2023/09/26 08:32:38;;;;;;;6.57;4.55;;;;;;;;;;5073922;28;20024;-56
2023/09/26 08:35:05;;;;;;;7.10;5.38;;;;;;;;;;5073878;28;20528;-56
2023/09/26 08:37:33;;;;;;;6.95;5.35;;;;;;;;;;5074422;28;20433;-56
2023/09/26 08:40:00;;;;;;;6.10;4.35;;;;;;;;;;5073750;28;20036;-56
2023/09/26 08:42:27;;;;;;;4.93;4.50;;;;;;;;;;5073872;28;20362;-56
2023/09/26 08:44:53;;;;;;;5.20;4.55;;;;;;;;;;5055648;28;20067;-56
2023/09/26 08:47:22;;;;;;;8.88;4.93;;;;;;;;;;5074004;28;20078;-56
2023/09/26 08:49:47;;;;;;;16.27;7.15;;;;;;;;;;5073968;28;20397;-56
2023/09/26 08:52:13;;;;;;;9.95;6.47;;;;;;;;;;5073645;28;20060;-56
2023/09/26 08:54:38;;;;;;;6.72;6.10;;;;;;;;;;5073660;28;20039;-56
2023/09/26 08:57:03;;;;;;;12.02;7.10;;;;;;;;;;5073588;28;20378;-56
2023/09/26 08:59:31;;;;;;;6.38;5.78;;;;;;;;;;5074102;28;20031;-56
2023/09/26 09:01:56;;;;;;;17.30;8.23;;;;;;;;;;5055614;28;20035;-56
2023/09/26 09:04:24;;;;;;;14.73;7.57;;;;;;;;;;5073570;28;20041;-56
2023/09/26 09:06:59;;;;;;;6.93;4.70;;;;;;;;;;5022914;28;20079;-61
2023/09/26 09:09:25;;;;;;;9.55;7.40;;;;;;;;;;5073752;28;20028;-61
2023/09/26 09:11:50;;;;;;;5.97;5.40;;;;;;;;;;5073784;28;20488;-61
2023/09/26 09:14:29;;;;;;;4.75;4.32;;;;;;;;;;5073441;28;20581;-61
2023/09/26 09:16:55;;;;;;;5.00;4.57;;;;;;;;;;5073446;28;20078;-61
2023/09/26 09:19:21;;;;;;;5.75;4.68;;;;;;;;;;5073370;28;20025;-61
2023/09/26 09:21:46;;;;;;;8.90;5.78;;;;;;;;;;5073630;28;20024;-61
2023/09/26 09:24:12;;;;;;;8.68;5.55;;;;;;;;;;5073889;28;20025;-61
2023/09/26 09:26:37;;;;;;;9.20;4.97;;;;;;;;;;5073895;28;20031;-61
2023/09/26 09:29:19;;;;;;;4.90;4.47;;;;;;;;;;5073318;28;20413;-61
2023/09/26 09:31:44;;;;;;;14.40;6.65;;;;;;;;;;5073560;28;20033;-61
2023/09/26 09:34:09;;;;;;;6.53;5.82;;;;;;;;;;5073258;28;20107;-61
2023/09/26 09:36:38;;;;;;;13.02;7.45;;;;;;;;;;5073250;28;20055;-61
2023/09/26 09:39:04;;;;;;;9.60;7.20;;;;;;;;;;5073060;28;20037;-61
2023/09/26 09:41:31;;;;;;;7.78;6.60;;;;;;;;;;5073435;28;20057;-61
2023/09/26 09:43:57;;;;;;;5.60;4.25;;;;;;;;;;5073487;28;20024;-61
2023/09/26 09:46:23;;;;;;;7.43;4.97;;;;;;;;;;5073400;28;20060;-61
2023/09/26 09:48:50;;;;;;;6.63;4.78;;;;;;;;;;5073124;28;20147;-61
2023/09/26 09:51:16;;;;;;;9.23;6.75;;;;;;;;;;5073377;28;20017;-61
2023/09/26 09:53:42;;;;;;;9.55;7.05;;;;;;;;;;5073089;28;20051;-61
2023/09/26 09:56:09;;;;;;;17.25;8.30;;;;;;;;;;5076751;28;20056;-61
2023/09/26 09:58:38;;;;;;;7.90;5.63;;;;;;;;;;5076969;28;20107;-61
2023/09/26 10:01:05;;;;;;;6.35;5.72;;;;;;;;;;5076990;28;20075;-61
2023/09/26 10:03:30;;;;;;;7.85;5.63;;;;;;;;;;5076672;28;20025;-61
2023/09/26 10:05:56;;;;;;;6.88;5.15;;;;;;;;;;5041386;28;20370;-61
2023/09/26 10:08:22;;;;;;;7.50;5.30;;;;;;;;;;4974833;28;20096;-61
2023/09/26 10:10:48;;;;;;;7.78;6.32;;;;;;;;;;5041635;28;20089;-61
2023/09/26 10:13:15;;;;;;;7.10;5.22;;;;;;;;;;4974533;28;20031;-61
2023/09/26 10:15:59;;;;;;;10.15;6.60;;;;;;;;;;4974738;28;20030;-61
2023/09/26 10:18:24;;;;;;;5.53;4.65;;;;;;;;;;4974384;28;20084;-61
2023/09/26 10:20:50;;;;;;;7.03;5.28;;;;;;;;;;4974959;28;20031;-61
2023/09/26 10:23:18;;;;;;;8.30;6.35;;;;;;;;;;4974387;28;20034;-61
2023/09/26 10:25:44;;;;;;;6.32;4.57;;;;;;;;;;5024830;28;20031;-61
2023/09/26 10:28:09;;;;;;;10.15;6.47;;;;;;;;;;4974847;28;20108;-61
2023/09/26 10:30:41;;;;;;;8.85;6.40;;;;;;;;;;5041233;28;20172;-61
2023/09/26 10:33:09;;;;;;;8.40;6.32;;;;;;;;;;4974230;28;20069;-61
2023/09/26 10:35:41;;;;;;;8.07;6.68;;;;;;;;;;4974446;28;20035;-61
2023/09/26 10:38:07;;;;;;;5.45;4.95;;;;;;;;;;5041646;28;20113;-61
2023/09/26 10:40:32;;;;;;;6.57;5.95;;;;;;;;;;4974424;28;20046;-61
2023/09/26 10:42:58;;;;;;;9.27;6.25;;;;;;;;;;4974342;28;20027;-61
2023/09/26 10:45:24;;;;;;;6.43;5.50;;;;;;;;;;5041157;28;20026;-61
2023/09/26 10:47:49;;;;;;;7.55;4.70;;;;;;;;;;4974307;28;20153;-61
2023/09/26 10:50:15;;;;;;;6.32;5.40;;;;;;;;;;4974233;28;20396;-61
2023/09/26 10:52:47;;;;;;;5.53;4.95;;;;;;;;;;4974216;28;20042;-61
2023/09/26 10:55:21;;;;;;;4.82;4.43;;;;;;;;;;5041252;28;20484;-61
2023/09/26 10:57:49;;;;;;;5.40;4.22;;;;;;;;;;4974391;28;20027;-61
2023/09/26 11:00:15;;;;;;;4.32;4.00;;;;;;;;;;5040476;28;20473;-61
2023/09/26 11:02:44;;;;;;;7.03;5.80;;;;;;;;;;4973797;28;20110;-61
2023/09/26 11:05:10;;;;;;;7.97;5.57;;;;;;;;;;5032556;28;20051;-61
2023/09/26 11:07:36;;;;;;;5.22;4.22;;;;;;;;;;5074739;28;20050;-61
2023/09/26 11:10:03;;;;;;;5.35;4.47;;;;;;;;;;5075730;28;20046;-61
2023/09/26 11:12:29;;;;;;;6.43;5.47;;;;;;;;;;5075686;28;20046;-61
2023/09/26 11:14:55;;;;;;;6.28;5.43;;;;;;;;;;5075638;28;20050;-61
2023/09/26 11:17:23;;;;;;;6.28;4.20;;;;;;;;;;5075325;28;20091;-61
2023/09/26 11:19:48;;;;;;;7.05;5.18;;;;;;;;;;5075178;28;20079;-61
2023/09/26 11:22:14;;;;;;;8.02;4.47;;;;;;;;;;5075168;28;20033;-61
2023/09/26 11:24:39;;;;;;;5.88;4.60;;;;;;;;;;5075726;28;20033;-61
2023/09/26 11:27:05;;;;;;;5.13;4.60;;;;;;;;;;5075087;28;20107;-61
2023/09/26 11:29:31;;;;;;;9.02;4.25;;;;;;;;;;5075038;28;20483;-61
2023/09/26 11:31:57;;;;;;;6.25;4.53;;;;;;;;;;5057076;28;20037;-61
2023/09/26 11:34:24;;;;;;;8.38;5.95;;;;;;;;;;5074903;28;20040;-61
2023/09/26 11:36:49;;;;;;;10.18;6.05;;;;;;;;;;5075176;28;20493;-61
2023/09/26 11:39:18;;;;;;;5.13;3.97;;;;;;;;;;5075013;28;20029;-61
2023/09/26 11:41:44;;;;;;;5.10;4.10;;;;;;;;;;5074766;28;20409;-61
2023/09/26 11:44:13;;;;;;;5.43;4.18;;;;;;;;;;5074712;28;20039;-61
2023/09/26 11:46:39;;;;;;;6.97;4.22;;;;;;;;;;5074952;28;20020;-61
2023/09/26 11:49:05;;;;;;;4.60;4.20;;;;;;;;;;5040508;28;20397;-61
2023/09/26 11:51:31;;;;;;;6.03;5.28;;;;;;;;;;5074877;28;20512;-61
2023/09/26 11:53:57;;;;;;;6.13;4.38;;;;;;;;;;5074550;28;20024;-61
2023/09/26 11:56:26;;;;;;;5.50;3.80;;;;;;;;;;5074804;28;20414;-61
2023/09/26 11:58:51;;;;;;;5.97;4.20;;;;;;;;;;5074649;28;20024;-61
2023/09/26 12:01:16;;;;;;;8.40;5.68;;;;;;;;;;5074957;28;20082;-61
2023/09/26 12:03:44;;;;;;;5.55;4.93;;;;;;;;;;5075476;22;20141;-57
2023/09/26 12:06:10;;;;;;;11.98;5.30;;;;;;;;;;5056547;28;20078;-56
2023/09/26 12:08:35;;;;;;;7.13;5.50;;;;;;;;;;5074877;28;20032;-56
2023/09/26 12:11:01;;;;;;;4.35;3.95;;;;;;;;;;5074225;28;20044;-56
2023/09/26 12:13:27;;;;;;;6.60;5.20;;;;;;;;;;5074500;28;20127;-56
2023/09/26 12:15:52;;;;;;;6.85;5.60;;;;;;;;;;5074718;28;20060;-56
2023/09/26 12:18:19;;;;;;;8.35;5.95;;;;;;;;;;5074137;28;20040;-56
2023/09/26 12:20:44;;;;;;;6.50;5.53;;;;;;;;;;5074393;28;20524;-56
2023/09/26 12:23:10;;;;;;;5.05;4.60;;;;;;;;;;5074035;28;20025;-56
2023/09/26 12:25:35;;;;;;;6.63;5.35;;;;;;;;;;5056064;28;20390;-56
2023/09/26 12:28:01;;;;;;;5.88;3.95;;;;;;;;;;5074243;28;20370;-56
2023/09/26 12:30:27;;;;;;;5.88;4.75;;;;;;;;;;5074224;28;20028;-56
2023/09/26 12:32:53;;;;;;;6.78;5.00;;;;;;;;;;5073889;28;20021;-56
2023/09/26 12:35:19;;;;;;;12.15;6.18;;;;;;;;;;5074410;28;20060;-56
2023/09/26 12:37:45;;;;;;;10.85;5.93;;;;;;;;;;5074129;28;20024;-56
2023/09/26 12:40:12;;;;;;;8.10;5.82;;;;;;;;;;5073735;28;20031;-56
2023/09/26 12:42:38;;;;;;;6.57;4.57;;;;;;;;;;5074064;28;20024;-56
2023/09/26 12:45:04;;;;;;;8.70;5.30;;;;;;;;;;5074008;28;20078;-56
2023/09/26 12:47:29;;;;;;;4.90;4.32;;;;;;;;;;5074019;28;20032;-56
2023/09/26 12:49:54;;;;;;;11.10;5.32;;;;;;;;;;5073700;28;20052;-56
2023/09/26 12:52:20;;;;;;;9.85;5.47;;;;;;;;;;5055679;28;20032;-56
2023/09/26 12:54:48;;;;;;;10.07;7.05;;;;;;;;;;5073934;28;20466;-56
2023/09/26 12:57:13;;;;;;;7.68;6.47;;;;;;;;;;5073891;28;20462;-56
2023/09/26 12:59:39;;;;;;;9.27;6.50;;;;;;;;;;5073540;28;20017;-56
2023/09/26 13:02:05;;;;;;;7.28;5.65;;;;;;;;;;5073607;28;20356;-56
2023/09/26 13:04:31;;;;;;;6.10;5.50;;;;;;;;;;5073434;28;20538;-56
2023/09/26 13:06:57;;;;;;;10.60;6.40;;;;;;;;;;5073553;28;20112;-56
2023/09/26 13:09:22;;;;;;;7.60;6.80;;;;;;;;;;5073774;28;20095;-56
2023/09/26 13:11:48;;;;;;;8.32;7.13;;;;;;;;;;5074028;28;20074;-56
2023/09/26 13:14:13;;;;;;;7.63;6.80;;;;;;;;;;5074005;28;20070;-56
2023/09/26 13:16:38;;;;;;;7.85;6.00;;;;;;;;;;5073652;28;20082;-56
2023/09/26 13:19:04;;;;;;;10.98;7.10;;;;;;;;;;5056014;28;20103;-56
2023/09/26 13:21:29;;;;;;;8.73;6.47;;;;;;;;;;5073705;28;20027;-56
2023/09/26 13:23:55;;;;;;;8.45;7.53;;;;;;;;;;5073277;28;20059;-56
2023/09/26 13:26:21;;;;;;;8.77;7.47;;;;;;;;;;5073453;28;20028;-56
2023/09/26 13:28:47;;;;;;;9.13;6.53;;;;;;;;;;5073111;28;20033;-56
2023/09/26 13:31:12;;;;;;;5.82;5.28;;;;;;;;;;5073835;28;20038;-56
2023/09/26 13:33:38;;;;;;;6.38;5.63;;;;;;;;;;5072722;28;20442;-56
2023/09/26 13:36:03;;;;;;;9.02;6.45;;;;;;;;;;5055886;28;20104;-56
2023/09/26 13:38:29;;;;;;;8.40;7.18;;;;;;;;;;5073429;28;20537;-56
2023/09/26 13:40:54;;;;;;;8.05;7.00;;;;;;;;;;5073455;28;20100;-56
2023/09/26 13:43:20;;;;;;;5.72;4.85;;;;;;;;;;5073084;28;20028;-56
2023/09/26 13:45:45;;;;;;;13.20;6.82;;;;;;;;;;5073655;28;20820;-56
2023/09/26 13:48:10;;;;;;;5.55;4.20;;;;;;;;;;5073351;28;20152;-56
2023/09/26 13:50:36;;;;;;;7.22;6.13;;;;;;;;;;5073029;28;20083;-56
2023/09/26 13:53:01;;;;;;;8.48;5.40;;;;;;;;;;5073368;28;20025;-56
2023/09/26 13:55:26;;;;;;;7.45;6.68;;;;;;;;;;5072844;28;20048;-56
2023/09/26 13:57:52;;;;;;;6.63;5.25;;;;;;;;;;5073457;28;20025;-56
2023/09/26 14:00:18;;;;;;;6.40;4.65;;;;;;;;;;5072980;28;20028;-56
2023/09/26 14:02:43;;;;;;;14.40;7.93;;;;;;;;;;5072981;28;20082;-56
2023/09/26 14:05:09;;;;;;;9.10;6.35;;;;;;;;;;5072334;28;20025;-56
2023/09/26 14:07:34;;;;;;;13.13;7.20;;;;;;;;;;5072381;28;20032;-56
2023/09/26 14:10:00;;;;;;;7.80;5.53;;;;;;;;;;5054922;28;20043;-56
2023/09/26 14:12:25;;;;;;;12.10;8.38;;;;;;;;;;5072744;28;20435;-56
2023/09/26 14:14:51;;;;;;;11.13;6.70;;;;;;;;;;5072975;28;20044;-56
2023/09/26 14:17:16;;;;;;;6.72;6.03;;;;;;;;;;5053884;28;20025;-56
2023/09/26 14:19:42;;;;;;;10.88;7.53;;;;;;;;;;5072328;28;20040;-56
2023/09/26 14:22:08;;;;;;;7.55;6.20;;;;;;;;;;5071837;28;20031;-56
2023/09/26 14:24:33;;;;;;;8.68;6.50;;;;;;;;;;5072761;28;20418;-56
2023/09/26 14:26:59;;;;;;;8.23;6.35;;;;;;;;;;5073115;28;20115;-56
2023/09/26 14:29:28;;;;;;;11.63;8.13;;;;;;;;;;5073213;28;20035;-56
2023/09/26 14:31:54;;;;;;;10.88;7.65;;;;;;;;;;5072634;28;20032;-56